sensor_id;sensor_type;location;lat;lon;timestamp;P1;durP1;ratioP1;P2;durP2;ratioP2
52031;SDS011;38044;45.148;39.604;2023-04-03T00:01:13;11.60;;;6.68;;
52031;SDS011;38044;45.148;39.604;2023-04-03T00:03:39;12.35;;;7.50;;
52031;SDS011;38044;45.148;39.604;2023-04-03T00:06:09;10.07;;;6.78;;
52031;SDS011;38044;45.148;39.604;2023-04-03T00:08:37;12.18;;;6.90;;
52031;SDS011;38044;45.148;39.604;2023-04-03T00:11:04;9.23;;;7.10;;
52031;SDS011;38044;45.148;39.604;2023-04-03T00:13:30;12.27;;;7.35;;
52031;SDS011;38044;45.148;39.604;2023-04-03T00:15:57;15.05;;;8.30;;
52031;SDS011;38044;45.148;39.604;2023-04-03T00:18:23;15.00;;;8.05;;
52031;SDS011;38044;45.148;39.604;2023-04-03T00:20:49;14.88;;;7.78;;
52031;SDS011;38044;45.148;39.604;2023-04-03T00:23:15;17.95;;;8.02;;
52031;SDS011;38044;45.148;39.604;2023-04-03T00:25:41;14.18;;;7.68;;
52031;SDS011;38044;45.148;39.604;2023-04-03T00:28:07;14.30;;;8.38;;
52031;SDS011;38044;45.148;39.604;2023-04-03T00:30:34;13.90;;;8.18;;
52031;SDS011;38044;45.148;39.604;2023-04-03T00:33:00;14.73;;;8.23;;
52031;SDS011;38044;45.148;39.604;2023-04-03T00:35:26;17.85;;;8.05;;
52031;SDS011;38044;45.148;39.604;2023-04-03T00:37:53;14.20;;;7.93;;
52031;SDS011;38044;45.148;39.604;2023-04-03T00:40:21;19.00;;;8.43;;
52031;SDS011;38044;45.148;39.604;2023-04-03T00:42:50;12.88;;;7.43;;
52031;SDS011;38044;45.148;39.604;2023-04-03T00:47:59;19.02;;;8.65;;
52031;SDS011;38044;45.148;39.604;2023-04-03T00:50:28;13.35;;;8.38;;
52031;SDS011;38044;45.148;39.604;2023-04-03T00:52:55;13.98;;;7.72;;
52031;SDS011;38044;45.148;39.604;2023-04-03T00:55:22;13.18;;;7.55;;
52031;SDS011;38044;45.148;39.604;2023-04-03T00:57:48;13.30;;;8.85;;
52031;SDS011;38044;45.148;39.604;2023-04-03T01:00:16;18.38;;;8.15;;
52031;SDS011;38044;45.148;39.604;2023-04-03T01:02:44;12.77;;;7.70;;
52031;SDS011;38044;45.148;39.604;2023-04-03T01:05:10;13.00;;;8.32;;
52031;SDS011;38044;45.148;39.604;2023-04-03T01:07:37;15.45;;;7.65;;
52031;SDS011;38044;45.148;39.604;2023-04-03T01:10:06;14.90;;;8.13;;
52031;SDS011;38044;45.148;39.604;2023-04-03T01:12:35;14.55;;;8.05;;
52031;SDS011;38044;45.148;39.604;2023-04-03T01:17:41;16.23;;;8.15;;
52031;SDS011;38044;45.148;39.604;2023-04-03T01:25:45;18.77;;;8.85;;
52031;SDS011;38044;45.148;39.604;2023-04-03T01:28:18;17.45;;;9.13;;
52031;SDS011;38044;45.148;39.604;2023-04-03T01:33:49;17.55;;;9.13;;
52031;SDS011;38044;45.148;39.604;2023-04-03T01:36:18;14.52;;;9.38;;
52031;SDS011;38044;45.148;39.604;2023-04-03T01:38:49;20.73;;;9.45;;
52031;SDS011;38044;45.148;39.604;2023-04-03T01:41:15;13.68;;;9.13;;
52031;SDS011;38044;45.148;39.604;2023-04-03T01:43:42;14.40;;;9.27;;
52031;SDS011;38044;45.148;39.604;2023-04-03T01:46:08;18.00;;;10.27;;
52031;SDS011;38044;45.148;39.604;2023-04-03T01:48:34;21.52;;;9.80;;
52031;SDS011;38044;45.148;39.604;2023-04-03T01:51:00;20.33;;;10.57;;
52031;SDS011;38044;45.148;39.604;2023-04-03T01:53:26;14.95;;;9.30;;
52031;SDS011;38044;45.148;39.604;2023-04-03T01:55:51;17.38;;;9.38;;
52031;SDS011;38044;45.148;39.604;2023-04-03T01:58:17;16.15;;;10.20;;
52031;SDS011;38044;45.148;39.604;2023-04-03T02:00:43;19.90;;;10.05;;
52031;SDS011;38044;45.148;39.604;2023-04-03T02:03:09;17.65;;;9.52;;
52031;SDS011;38044;45.148;39.604;2023-04-03T02:05:35;15.80;;;9.05;;
52031;SDS011;38044;45.148;39.604;2023-04-03T02:08:00;18.67;;;10.27;;
52031;SDS011;38044;45.148;39.604;2023-04-03T02:10:26;16.13;;;9.95;;
52031;SDS011;38044;45.148;39.604;2023-04-03T02:12:52;15.50;;;10.18;;
52031;SDS011;38044;45.148;39.604;2023-04-03T02:15:18;18.92;;;10.20;;
52031;SDS011;38044;45.148;39.604;2023-04-03T02:17:43;17.10;;;8.93;;
52031;SDS011;38044;45.148;39.604;2023-04-03T02:20:09;19.85;;;10.52;;
52031;SDS011;38044;45.148;39.604;2023-04-03T02:22:35;17.75;;;9.70;;
52031;SDS011;38044;45.148;39.604;2023-04-03T02:25:01;19.25;;;10.40;;
52031;SDS011;38044;45.148;39.604;2023-04-03T02:27:27;19.60;;;10.82;;
52031;SDS011;38044;45.148;39.604;2023-04-03T02:29:53;16.38;;;10.50;;
52031;SDS011;38044;45.148;39.604;2023-04-03T02:32:19;18.98;;;10.23;;
52031;SDS011;38044;45.148;39.604;2023-04-03T02:34:45;16.63;;;10.18;;
52031;SDS011;38044;45.148;39.604;2023-04-03T02:37:11;17.40;;;10.25;;
52031;SDS011;38044;45.148;39.604;2023-04-03T02:39:37;19.92;;;10.95;;
52031;SDS011;38044;45.148;39.604;2023-04-03T02:42:02;15.60;;;9.98;;
52031;SDS011;38044;45.148;39.604;2023-04-03T02:44:29;18.98;;;11.00;;
52031;SDS011;38044;45.148;39.604;2023-04-03T02:46:54;17.17;;;10.13;;
52031;SDS011;38044;45.148;39.604;2023-04-03T02:49:20;21.10;;;11.05;;
52031;SDS011;38044;45.148;39.604;2023-04-03T02:51:46;18.85;;;10.32;;
52031;SDS011;38044;45.148;39.604;2023-04-03T02:54:12;23.15;;;11.32;;
52031;SDS011;38044;45.148;39.604;2023-04-03T02:56:38;21.52;;;11.15;;
52031;SDS011;38044;45.148;39.604;2023-04-03T02:59:04;20.60;;;12.05;;
52031;SDS011;38044;45.148;39.604;2023-04-03T03:01:31;18.88;;;11.52;;
52031;SDS011;38044;45.148;39.604;2023-04-03T03:03:58;21.95;;;11.07;;
52031;SDS011;38044;45.148;39.604;2023-04-03T03:06:25;17.85;;;11.02;;
52031;SDS011;38044;45.148;39.604;2023-04-03T03:08:51;19.45;;;10.82;;
52031;SDS011;38044;45.148;39.604;2023-04-03T03:11:16;27.65;;;11.93;;
52031;SDS011;38044;45.148;39.604;2023-04-03T03:13:42;20.52;;;11.32;;
52031;SDS011;38044;45.148;39.604;2023-04-03T03:16:08;19.48;;;11.32;;
52031;SDS011;38044;45.148;39.604;2023-04-03T03:18:34;18.23;;;11.20;;
52031;SDS011;38044;45.148;39.604;2023-04-03T03:21:01;20.95;;;11.80;;
52031;SDS011;38044;45.148;39.604;2023-04-03T03:23:28;18.13;;;11.48;;
52031;SDS011;38044;45.148;39.604;2023-04-03T03:25:57;15.57;;;10.18;;
52031;SDS011;38044;45.148;39.604;2023-04-03T03:28:25;18.40;;;11.23;;
52031;SDS011;38044;45.148;39.604;2023-04-03T03:30:51;16.85;;;10.90;;
52031;SDS011;38044;45.148;39.604;2023-04-03T03:33:17;19.13;;;11.63;;
52031;SDS011;38044;45.148;39.604;2023-04-03T03:35:43;16.83;;;10.13;;
52031;SDS011;38044;45.148;39.604;2023-04-03T03:38:10;19.17;;;11.10;;
52031;SDS011;38044;45.148;39.604;2023-04-03T03:40:36;18.20;;;10.68;;
52031;SDS011;38044;45.148;39.604;2023-04-03T03:43:01;24.50;;;11.18;;
52031;SDS011;38044;45.148;39.604;2023-04-03T03:45:28;17.63;;;11.45;;
52031;SDS011;38044;45.148;39.604;2023-04-03T03:47:53;19.83;;;11.27;;
52031;SDS011;38044;45.148;39.604;2023-04-03T03:50:19;19.17;;;10.98;;
52031;SDS011;38044;45.148;39.604;2023-04-03T03:52:45;18.98;;;11.38;;
52031;SDS011;38044;45.148;39.604;2023-04-03T03:55:11;16.48;;;10.65;;
52031;SDS011;38044;45.148;39.604;2023-04-03T03:57:37;20.58;;;11.07;;
52031;SDS011;38044;45.148;39.604;2023-04-03T04:00:03;15.75;;;9.82;;
52031;SDS011;38044;45.148;39.604;2023-04-03T04:02:29;16.33;;;10.32;;
52031;SDS011;38044;45.148;39.604;2023-04-03T04:04:55;19.52;;;10.13;;
52031;SDS011;38044;45.148;39.604;2023-04-03T04:07:21;15.70;;;9.80;;
52031;SDS011;38044;45.148;39.604;2023-04-03T04:09:48;18.10;;;10.07;;
52031;SDS011;38044;45.148;39.604;2023-04-03T04:12:13;19.27;;;8.85;;
52031;SDS011;38044;45.148;39.604;2023-04-03T04:14:39;12.73;;;8.48;;
52031;SDS011;38044;45.148;39.604;2023-04-03T04:17:05;15.13;;;8.63;;
52031;SDS011;38044;45.148;39.604;2023-04-03T04:19:31;16.33;;;8.52;;
52031;SDS011;38044;45.148;39.604;2023-04-03T04:21:58;16.10;;;8.05;;
52031;SDS011;38044;45.148;39.604;2023-04-03T04:24:24;18.58;;;8.07;;
52031;SDS011;38044;45.148;39.604;2023-04-03T04:26:50;15.73;;;7.45;;
52031;SDS011;38044;45.148;39.604;2023-04-03T04:29:16;12.52;;;6.78;;
52031;SDS011;38044;45.148;39.604;2023-04-03T04:31:41;10.98;;;6.47;;
52031;SDS011;38044;45.148;39.604;2023-04-03T04:34:07;10.45;;;6.75;;
52031;SDS011;38044;45.148;39.604;2023-04-03T04:36:33;10.98;;;6.75;;
52031;SDS011;38044;45.148;39.604;2023-04-03T04:38:59;8.68;;;6.13;;
52031;SDS011;38044;45.148;39.604;2023-04-03T04:41:25;12.45;;;7.55;;
52031;SDS011;38044;45.148;39.604;2023-04-03T04:43:51;6.88;;;4.80;;
52031;SDS011;38044;45.148;39.604;2023-04-03T04:46:17;9.40;;;4.78;;
52031;SDS011;38044;45.148;39.604;2023-04-03T04:48:43;7.97;;;4.30;;
52031;SDS011;38044;45.148;39.604;2023-04-03T04:51:10;6.75;;;3.80;;
52031;SDS011;38044;45.148;39.604;2023-04-03T04:53:36;7.05;;;3.35;;
52031;SDS011;38044;45.148;39.604;2023-04-03T04:56:03;6.82;;;3.40;;
52031;SDS011;38044;45.148;39.604;2023-04-03T04:58:29;4.53;;;2.67;;
52031;SDS011;38044;45.148;39.604;2023-04-03T05:01:02;5.50;;;3.45;;
52031;SDS011;38044;45.148;39.604;2023-04-03T05:03:32;5.90;;;3.33;;
52031;SDS011;38044;45.148;39.604;2023-04-03T05:05:58;6.55;;;3.35;;
52031;SDS011;38044;45.148;39.604;2023-04-03T05:08:25;4.80;;;3.03;;
52031;SDS011;38044;45.148;39.604;2023-04-03T05:10:51;5.13;;;3.15;;
52031;SDS011;38044;45.148;39.604;2023-04-03T05:13:18;5.05;;;3.55;;
52031;SDS011;38044;45.148;39.604;2023-04-03T05:15:44;5.50;;;3.72;;
52031;SDS011;38044;45.148;39.604;2023-04-03T05:18:12;6.65;;;5.68;;
52031;SDS011;38044;45.148;39.604;2023-04-03T05:20:38;4.97;;;2.97;;
52031;SDS011;38044;45.148;39.604;2023-04-03T05:23:04;6.60;;;3.20;;
52031;SDS011;38044;45.148;39.604;2023-04-03T05:25:30;4.00;;;3.05;;
52031;SDS011;38044;45.148;39.604;2023-04-03T05:27:56;4.88;;;3.03;;
52031;SDS011;38044;45.148;39.604;2023-04-03T05:30:22;3.97;;;3.20;;
52031;SDS011;38044;45.148;39.604;2023-04-03T05:32:48;4.60;;;2.90;;
52031;SDS011;38044;45.148;39.604;2023-04-03T05:35:14;6.78;;;2.80;;
52031;SDS011;38044;45.148;39.604;2023-04-03T05:37:40;6.38;;;3.42;;
52031;SDS011;38044;45.148;39.604;2023-04-03T05:40:06;4.63;;;3.03;;
52031;SDS011;38044;45.148;39.604;2023-04-03T05:42:39;3.97;;;2.50;;
52031;SDS011;38044;45.148;39.604;2023-04-03T05:45:05;3.70;;;2.80;;
52031;SDS011;38044;45.148;39.604;2023-04-03T05:47:31;3.95;;;2.70;;
52031;SDS011;38044;45.148;39.604;2023-04-03T05:49:57;4.55;;;2.78;;
52031;SDS011;38044;45.148;39.604;2023-04-03T05:52:26;3.15;;;2.75;;
52031;SDS011;38044;45.148;39.604;2023-04-03T05:54:53;3.63;;;2.55;;
52031;SDS011;38044;45.148;39.604;2023-04-03T05:57:20;5.05;;;2.65;;
52031;SDS011;38044;45.148;39.604;2023-04-03T05:59:46;4.43;;;2.85;;
52031;SDS011;38044;45.148;39.604;2023-04-03T06:02:13;2.80;;;2.40;;
52031;SDS011;38044;45.148;39.604;2023-04-03T06:04:44;3.75;;;2.30;;
52031;SDS011;38044;45.148;39.604;2023-04-03T06:07:14;5.65;;;3.08;;
52031;SDS011;38044;45.148;39.604;2023-04-03T06:09:41;3.25;;;2.53;;
52031;SDS011;38044;45.148;39.604;2023-04-03T06:12:08;4.78;;;3.13;;
52031;SDS011;38044;45.148;39.604;2023-04-03T06:14:34;4.07;;;2.70;;
52031;SDS011;38044;45.148;39.604;2023-04-03T06:17:00;3.28;;;2.67;;
52031;SDS011;38044;45.148;39.604;2023-04-03T06:19:26;7.43;;;3.38;;
52031;SDS011;38044;45.148;39.604;2023-04-03T06:21:53;7.57;;;3.50;;
52031;SDS011;38044;45.148;39.604;2023-04-03T06:24:19;4.35;;;3.00;;
52031;SDS011;38044;45.148;39.604;2023-04-03T06:26:48;3.53;;;2.50;;
52031;SDS011;38044;45.148;39.604;2023-04-03T06:29:15;5.22;;;2.95;;
52031;SDS011;38044;45.148;39.604;2023-04-03T06:31:41;5.93;;;3.13;;
52031;SDS011;38044;45.148;39.604;2023-04-03T06:34:06;4.25;;;3.38;;
52031;SDS011;38044;45.148;39.604;2023-04-03T06:36:32;4.55;;;3.17;;
52031;SDS011;38044;45.148;39.604;2023-04-03T06:38:59;5.80;;;3.25;;
52031;SDS011;38044;45.148;39.604;2023-04-03T06:41:26;6.13;;;3.10;;
52031;SDS011;38044;45.148;39.604;2023-04-03T06:43:52;5.82;;;3.50;;
52031;SDS011;38044;45.148;39.604;2023-04-03T06:46:19;6.78;;;3.58;;
52031;SDS011;38044;45.148;39.604;2023-04-03T06:48:47;4.47;;;3.20;;
52031;SDS011;38044;45.148;39.604;2023-04-03T06:51:17;4.82;;;3.00;;
52031;SDS011;38044;45.148;39.604;2023-04-03T06:53:48;4.25;;;2.83;;
52031;SDS011;38044;45.148;39.604;2023-04-03T06:56:14;5.75;;;2.90;;
52031;SDS011;38044;45.148;39.604;2023-04-03T06:58:41;10.80;;;8.98;;
52031;SDS011;38044;45.148;39.604;2023-04-03T07:01:09;5.93;;;3.80;;
52031;SDS011;38044;45.148;39.604;2023-04-03T07:03:37;6.07;;;4.15;;
52031;SDS011;38044;45.148;39.604;2023-04-03T07:06:04;9.38;;;3.13;;
52031;SDS011;38044;45.148;39.604;2023-04-03T07:08:30;5.05;;;2.72;;
52031;SDS011;38044;45.148;39.604;2023-04-03T07:10:57;13.82;;;11.88;;
52031;SDS011;38044;45.148;39.604;2023-04-03T07:13:23;16.77;;;13.13;;
52031;SDS011;38044;45.148;39.604;2023-04-03T07:15:49;11.68;;;9.68;;
52031;SDS011;38044;45.148;39.604;2023-04-03T07:18:15;8.45;;;6.40;;
52031;SDS011;38044;45.148;39.604;2023-04-03T07:20:42;7.65;;;4.60;;
52031;SDS011;38044;45.148;39.604;2023-04-03T07:23:08;9.27;;;5.80;;
52031;SDS011;38044;45.148;39.604;2023-04-03T07:25:35;16.40;;;14.85;;
52031;SDS011;38044;45.148;39.604;2023-04-03T07:28:01;8.90;;;7.82;;
52031;SDS011;38044;45.148;39.604;2023-04-03T07:30:28;5.32;;;2.90;;
52031;SDS011;38044;45.148;39.604;2023-04-03T07:32:54;6.55;;;2.85;;
52031;SDS011;38044;45.148;39.604;2023-04-03T07:35:20;4.00;;;2.90;;
52031;SDS011;38044;45.148;39.604;2023-04-03T07:37:47;3.60;;;2.90;;
52031;SDS011;38044;45.148;39.604;2023-04-03T07:40:13;14.30;;;12.75;;
52031;SDS011;38044;45.148;39.604;2023-04-03T07:42:38;26.42;;;21.55;;
52031;SDS011;38044;45.148;39.604;2023-04-03T07:45:04;22.65;;;19.42;;
52031;SDS011;38044;45.148;39.604;2023-04-03T07:47:30;12.73;;;9.43;;
52031;SDS011;38044;45.148;39.604;2023-04-03T07:49:56;11.70;;;7.47;;
52031;SDS011;38044;45.148;39.604;2023-04-03T07:52:23;7.20;;;3.28;;
52031;SDS011;38044;45.148;39.604;2023-04-03T07:54:49;3.47;;;2.92;;
52031;SDS011;38044;45.148;39.604;2023-04-03T07:57:15;6.00;;;3.30;;
52031;SDS011;38044;45.148;39.604;2023-04-03T07:59:41;4.15;;;3.20;;
52031;SDS011;38044;45.148;39.604;2023-04-03T08:02:11;7.68;;;4.15;;
52031;SDS011;38044;45.148;39.604;2023-04-03T08:04:37;4.18;;;3.15;;
52031;SDS011;38044;45.148;39.604;2023-04-03T08:07:03;5.72;;;3.42;;
52031;SDS011;38044;45.148;39.604;2023-04-03T08:09:29;4.25;;;3.13;;
52031;SDS011;38044;45.148;39.604;2023-04-03T08:11:55;7.88;;;3.42;;
52031;SDS011;38044;45.148;39.604;2023-04-03T08:14:21;8.13;;;3.83;;
52031;SDS011;38044;45.148;39.604;2023-04-03T08:16:47;5.22;;;3.50;;
52031;SDS011;38044;45.148;39.604;2023-04-03T08:19:14;7.13;;;3.70;;
52031;SDS011;38044;45.148;39.604;2023-04-03T08:21:42;7.00;;;6.28;;
52031;SDS011;38044;45.148;39.604;2023-04-03T08:24:08;8.95;;;6.57;;
52031;SDS011;38044;45.148;39.604;2023-04-03T08:26:34;9.88;;;7.60;;
52031;SDS011;38044;45.148;39.604;2023-04-03T08:29:00;6.97;;;4.65;;
52031;SDS011;38044;45.148;39.604;2023-04-03T08:31:26;12.32;;;10.23;;
52031;SDS011;38044;45.148;39.604;2023-04-03T08:33:52;28.35;;;24.52;;
52031;SDS011;38044;45.148;39.604;2023-04-03T08:36:22;19.83;;;14.70;;
52031;SDS011;38044;45.148;39.604;2023-04-03T08:38:50;7.65;;;4.72;;
52031;SDS011;38044;45.148;39.604;2023-04-03T08:46:36;4.10;;;2.88;;
52031;SDS011;38044;45.148;39.604;2023-04-03T08:49:28;6.95;;;3.28;;
52031;SDS011;38044;45.148;39.604;2023-04-03T08:51:58;9.02;;;4.88;;
52031;SDS011;38044;45.148;39.604;2023-04-03T08:54:29;6.15;;;4.55;;
52031;SDS011;38044;45.148;39.604;2023-04-03T08:56:58;5.07;;;3.50;;
52031;SDS011;38044;45.148;39.604;2023-04-03T08:59:32;3.95;;;3.00;;
52031;SDS011;38044;45.148;39.604;2023-04-03T09:02:00;10.80;;;5.70;;
52031;SDS011;38044;45.148;39.604;2023-04-03T09:04:32;26.73;;;20.88;;
52031;SDS011;38044;45.148;39.604;2023-04-03T09:07:02;10.98;;;9.38;;
52031;SDS011;38044;45.148;39.604;2023-04-03T09:09:35;12.93;;;11.63;;
52031;SDS011;38044;45.148;39.604;2023-04-03T09:23:01;3.97;;;3.20;;
52031;SDS011;38044;45.148;39.604;2023-04-03T09:25:38;7.28;;;4.53;;
52031;SDS011;38044;45.148;39.604;2023-04-03T09:28:04;6.95;;;5.82;;
52031;SDS011;38044;45.148;39.604;2023-04-03T09:30:34;5.10;;;4.47;;
52031;SDS011;38044;45.148;39.604;2023-04-03T09:33:02;3.85;;;2.67;;
52031;SDS011;38044;45.148;39.604;2023-04-03T09:35:34;10.95;;;6.50;;
52031;SDS011;38044;45.148;39.604;2023-04-03T09:40:41;11.95;;;6.22;;
52031;SDS011;38044;45.148;39.604;2023-04-03T09:43:30;20.70;;;9.23;;
52031;SDS011;38044;45.148;39.604;2023-04-03T09:45:56;27.63;;;11.32;;
52031;SDS011;38044;45.148;39.604;2023-04-03T09:48:52;11.88;;;7.40;;
52031;SDS011;38044;45.148;39.604;2023-04-03T09:51:24;17.45;;;9.93;;
52031;SDS011;38044;45.148;39.604;2023-04-03T09:53:52;15.20;;;8.13;;
52031;SDS011;38044;45.148;39.604;2023-04-03T09:58:51;13.48;;;6.40;;
52031;SDS011;38044;45.148;39.604;2023-04-03T10:01:21;8.93;;;4.88;;
52031;SDS011;38044;45.148;39.604;2023-04-03T10:04:09;22.38;;;8.73;;
52031;SDS011;38044;45.148;39.604;2023-04-03T10:09:21;9.77;;;7.18;;
52031;SDS011;38044;45.148;39.604;2023-04-03T10:12:05;5.63;;;3.60;;
52031;SDS011;38044;45.148;39.604;2023-04-03T10:14:38;12.05;;;2.20;;
52031;SDS011;38044;45.148;39.604;2023-04-03T10:17:29;2.30;;;1.70;;
52031;SDS011;38044;45.148;39.604;2023-04-03T10:25:52;4.25;;;1.70;;
52031;SDS011;38044;45.148;39.604;2023-04-03T10:39:46;1.98;;;1.73;;
52031;SDS011;38044;45.148;39.604;2023-04-03T10:59:02;7.85;;;5.53;;
52031;SDS011;38044;45.148;39.604;2023-04-03T11:01:33;10.20;;;7.90;;
52031;SDS011;38044;45.148;39.604;2023-04-03T11:04:03;8.10;;;5.50;;
52031;SDS011;38044;45.148;39.604;2023-04-03T11:07:14;3.83;;;2.20;;
52031;SDS011;38044;45.148;39.604;2023-04-03T11:09:34;2.10;;;1.90;;
52031;SDS011;38044;45.148;39.604;2023-04-03T11:12:13;3.17;;;2.08;;
52031;SDS011;38044;45.148;39.604;2023-04-03T11:14:44;2.63;;;1.63;;
52031;SDS011;38044;45.148;39.604;2023-04-03T11:19:59;3.72;;;2.05;;
52031;SDS011;38044;45.148;39.604;2023-04-03T11:22:36;2.95;;;1.45;;
52031;SDS011;38044;45.148;39.604;2023-04-03T11:25:09;13.90;;;7.57;;
52031;SDS011;38044;45.148;39.604;2023-04-03T11:30:32;5.93;;;3.67;;
52031;SDS011;38044;45.148;39.604;2023-04-03T11:35:59;10.35;;;4.97;;
52031;SDS011;38044;45.148;39.604;2023-04-03T11:38:38;11.40;;;4.80;;
52031;SDS011;38044;45.148;39.604;2023-04-03T11:41:09;4.70;;;2.60;;
52031;SDS011;38044;45.148;39.604;2023-04-03T11:43:48;2.67;;;1.80;;
52031;SDS011;38044;45.148;39.604;2023-04-03T11:46:40;3.67;;;1.80;;
52031;SDS011;38044;45.148;39.604;2023-04-03T12:05:51;7.67;;;5.80;;
52031;SDS011;38044;45.148;39.604;2023-04-03T12:08:27;13.95;;;10.50;;
52031;SDS011;38044;45.148;39.604;2023-04-03T12:16:23;8.32;;;6.38;;
52031;SDS011;38044;45.148;39.604;2023-04-03T12:19:02;8.18;;;7.35;;
52031;SDS011;38044;45.148;39.604;2023-04-03T12:29:25;4.90;;;3.47;;
52031;SDS011;38044;45.148;39.604;2023-04-03T12:45:24;5.03;;;2.55;;
52031;SDS011;38044;45.148;39.604;2023-04-03T12:47:52;4.82;;;2.95;;
52031;SDS011;38044;45.148;39.604;2023-04-03T12:53:23;3.45;;;2.22;;
52031;SDS011;38044;45.148;39.604;2023-04-03T12:55:43;4.68;;;2.20;;
52031;SDS011;38044;45.148;39.604;2023-04-03T12:58:13;4.13;;;2.20;;
52031;SDS011;38044;45.148;39.604;2023-04-03T13:00:46;4.10;;;2.28;;
52031;SDS011;38044;45.148;39.604;2023-04-03T13:03:24;4.22;;;2.30;;
52031;SDS011;38044;45.148;39.604;2023-04-03T13:05:53;2.83;;;1.95;;
52031;SDS011;38044;45.148;39.604;2023-04-03T13:08:23;3.88;;;1.88;;
52031;SDS011;38044;45.148;39.604;2023-04-03T13:13:26;2.75;;;1.67;;
52031;SDS011;38044;45.148;39.604;2023-04-03T13:15:53;2.15;;;1.40;;
52031;SDS011;38044;45.148;39.604;2023-04-03T13:18:41;3.40;;;1.58;;
52031;SDS011;38044;45.148;39.604;2023-04-03T13:21:13;4.07;;;1.63;;
52031;SDS011;38044;45.148;39.604;2023-04-03T13:23:42;3.15;;;1.20;;
52031;SDS011;38044;45.148;39.604;2023-04-03T13:26:14;5.07;;;1.20;;
52031;SDS011;38044;45.148;39.604;2023-04-03T13:28:42;3.13;;;1.63;;
52031;SDS011;38044;45.148;39.604;2023-04-03T13:33:40;3.05;;;1.88;;
52031;SDS011;38044;45.148;39.604;2023-04-03T13:36:20;3.15;;;1.55;;
52031;SDS011;38044;45.148;39.604;2023-04-03T13:39:06;3.65;;;1.80;;
52031;SDS011;38044;45.148;39.604;2023-04-03T13:41:48;4.35;;;1.58;;
52031;SDS011;38044;45.148;39.604;2023-04-03T13:44:27;2.25;;;1.70;;
52031;SDS011;38044;45.148;39.604;2023-04-03T13:46:56;4.50;;;1.90;;
52031;SDS011;38044;45.148;39.604;2023-04-03T13:49:32;1.92;;;1.20;;
52031;SDS011;38044;45.148;39.604;2023-04-03T13:52:17;2.03;;;1.35;;
52031;SDS011;38044;45.148;39.604;2023-04-03T13:54:56;3.90;;;1.58;;
52031;SDS011;38044;45.148;39.604;2023-04-03T13:57:24;3.97;;;1.17;;
52031;SDS011;38044;45.148;39.604;2023-04-03T13:59:50;3.15;;;1.55;;
52031;SDS011;38044;45.148;39.604;2023-04-03T14:02:22;3.97;;;1.40;;
52031;SDS011;38044;45.148;39.604;2023-04-03T14:04:56;3.58;;;1.30;;
52031;SDS011;38044;45.148;39.604;2023-04-03T14:07:26;2.88;;;1.20;;
52031;SDS011;38044;45.148;39.604;2023-04-03T14:09:53;2.33;;;1.20;;
52031;SDS011;38044;45.148;39.604;2023-04-03T14:14:54;3.85;;;1.10;;
52031;SDS011;38044;45.148;39.604;2023-04-03T14:17:23;1.45;;;1.02;;
52031;SDS011;38044;45.148;39.604;2023-04-03T14:19:52;1.70;;;1.10;;
52031;SDS011;38044;45.148;39.604;2023-04-03T14:22:27;1.80;;;1.20;;
52031;SDS011;38044;45.148;39.604;2023-04-03T14:24:55;4.15;;;1.70;;
52031;SDS011;38044;45.148;39.604;2023-04-03T14:27:55;3.42;;;1.80;;
52031;SDS011;38044;45.148;39.604;2023-04-03T14:30:17;2.97;;;1.27;;
52031;SDS011;38044;45.148;39.604;2023-04-03T14:32:46;5.53;;;3.30;;
52031;SDS011;38044;45.148;39.604;2023-04-03T14:35:13;6.20;;;4.93;;
52031;SDS011;38044;45.148;39.604;2023-04-03T14:37:39;3.88;;;2.90;;
52031;SDS011;38044;45.148;39.604;2023-04-03T14:40:06;3.88;;;2.22;;
52031;SDS011;38044;45.148;39.604;2023-04-03T14:42:34;4.78;;;2.95;;
52031;SDS011;38044;45.148;39.604;2023-04-03T14:45:03;6.15;;;3.50;;
52031;SDS011;38044;45.148;39.604;2023-04-03T14:47:34;5.83;;;3.40;;
52031;SDS011;38044;45.148;39.604;2023-04-03T14:50:07;4.22;;;2.75;;
52031;SDS011;38044;45.148;39.604;2023-04-03T14:52:34;4.40;;;2.85;;
52031;SDS011;38044;45.148;39.604;2023-04-03T14:55:02;5.05;;;2.50;;
52031;SDS011;38044;45.148;39.604;2023-04-03T14:57:33;4.33;;;3.37;;
52031;SDS011;38044;45.148;39.604;2023-04-03T14:59:59;6.85;;;3.55;;
52031;SDS011;38044;45.148;39.604;2023-04-03T15:02:33;6.63;;;3.95;;
52031;SDS011;38044;45.148;39.604;2023-04-03T15:05:01;6.00;;;4.15;;
52031;SDS011;38044;45.148;39.604;2023-04-03T15:07:30;7.32;;;5.53;;
52031;SDS011;38044;45.148;39.604;2023-04-03T15:10:03;5.88;;;3.92;;
52031;SDS011;38044;45.148;39.604;2023-04-03T15:12:43;9.98;;;3.80;;
52031;SDS011;38044;45.148;39.604;2023-04-03T15:15:10;6.38;;;3.15;;
52031;SDS011;38044;45.148;39.604;2023-04-03T15:17:36;5.18;;;3.72;;
52031;SDS011;38044;45.148;39.604;2023-04-03T15:20:02;5.05;;;4.30;;
52031;SDS011;38044;45.148;39.604;2023-04-03T15:22:36;5.13;;;4.00;;
52031;SDS011;38044;45.148;39.604;2023-04-03T15:25:02;6.10;;;2.95;;
52031;SDS011;38044;45.148;39.604;2023-04-03T15:27:28;5.20;;;2.97;;
52031;SDS011;38044;45.148;39.604;2023-04-03T15:29:54;4.47;;;3.05;;
52031;SDS011;38044;45.148;39.604;2023-04-03T15:32:20;5.68;;;2.53;;
52031;SDS011;38044;45.148;39.604;2023-04-03T15:34:45;5.32;;;2.72;;
52031;SDS011;38044;45.148;39.604;2023-04-03T15:37:11;3.35;;;2.63;;
52031;SDS011;38044;45.148;39.604;2023-04-03T15:39:37;6.72;;;1.83;;
52031;SDS011;38044;45.148;39.604;2023-04-03T15:42:03;2.47;;;1.50;;
52031;SDS011;38044;45.148;39.604;2023-04-03T15:44:31;3.17;;;1.42;;
52031;SDS011;38044;45.148;39.604;2023-04-03T15:46:59;1.55;;;1.45;;
52031;SDS011;38044;45.148;39.604;2023-04-03T15:49:26;2.95;;;1.95;;
52031;SDS011;38044;45.148;39.604;2023-04-03T15:51:52;2.80;;;2.00;;
52031;SDS011;38044;45.148;39.604;2023-04-03T15:54:18;5.20;;;2.30;;
52031;SDS011;38044;45.148;39.604;2023-04-03T15:56:44;3.55;;;1.75;;
52031;SDS011;38044;45.148;39.604;2023-04-03T15:59:10;3.67;;;2.00;;
52031;SDS011;38044;45.148;39.604;2023-04-03T16:01:36;5.22;;;2.10;;
52031;SDS011;38044;45.148;39.604;2023-04-03T16:04:02;9.32;;;3.28;;
52031;SDS011;38044;45.148;39.604;2023-04-03T16:06:29;16.85;;;6.68;;
52031;SDS011;38044;45.148;39.604;2023-04-03T16:08:55;11.70;;;4.28;;
52031;SDS011;38044;45.148;39.604;2023-04-03T16:11:23;15.35;;;9.50;;
52031;SDS011;38044;45.148;39.604;2023-04-03T16:13:51;29.15;;;16.50;;
52031;SDS011;38044;45.148;39.604;2023-04-03T16:16:16;25.58;;;14.57;;
52031;SDS011;38044;45.148;39.604;2023-04-03T16:18:42;22.88;;;15.25;;
52031;SDS011;38044;45.148;39.604;2023-04-03T16:21:08;28.83;;;13.13;;
52031;SDS011;38044;45.148;39.604;2023-04-03T16:23:34;16.75;;;12.05;;
52031;SDS011;38044;45.148;39.604;2023-04-03T16:26:00;12.57;;;6.75;;
52031;SDS011;38044;45.148;39.604;2023-04-03T16:28:26;16.33;;;9.20;;
52031;SDS011;38044;45.148;39.604;2023-04-03T16:30:52;14.63;;;8.52;;
52031;SDS011;38044;45.148;39.604;2023-04-03T16:33:18;14.98;;;7.30;;
52031;SDS011;38044;45.148;39.604;2023-04-03T16:35:46;7.80;;;4.32;;
52031;SDS011;38044;45.148;39.604;2023-04-03T16:38:13;12.88;;;5.07;;
52031;SDS011;38044;45.148;39.604;2023-04-03T16:40:40;4.82;;;2.97;;
52031;SDS011;38044;45.148;39.604;2023-04-03T16:43:06;4.22;;;2.40;;
52031;SDS011;38044;45.148;39.604;2023-04-03T16:45:32;3.97;;;2.35;;
52031;SDS011;38044;45.148;39.604;2023-04-03T16:47:58;4.65;;;2.60;;